Time;durP1;ratioP1;P1;durP2;ratioP2;P2;SDS_P1;SDS_P2;PMS_P1;PMS_P2;Temp;Humidity;BMP_temperature;BMP_pressure;BME280_temperature;BME280_humidity;BME280_pressure;Samples;Min_cycle;Max_cycle;Signal;HPM_P1;HPM_P2
2022/08/17 00:01:04;;;;;;;;;;;21.90;99.90;;;;;;5048764;28;20007;-38
2022/08/17 00:03:34;;;;;;;;;;;21.90;99.90;;;;;;5046327;28;19924;-36
2022/08/17 00:06:02;;;;;;;;;;;21.90;99.90;;;;;;5048501;28;19917;-39
2022/08/17 00:08:48;;;;;;;;;;;21.90;99.90;;;;;;5043062;28;20053;-38
2022/08/17 00:11:19;;;;;;;;;;;22.00;99.90;;;;;;5047195;28;20456;-37
2022/08/17 00:13:47;;;;;;;;;;;22.00;99.90;;;;;;5049585;28;20383;-38
2022/08/17 00:16:15;;;;;;;;;;;21.90;99.90;;;;;;5047169;28;21535;-37
2022/08/17 00:18:41;;;;;;;;;;;21.90;99.90;;;;;;5045479;28;19913;-37
2022/08/17 00:21:08;;;;;;;;;;;21.90;99.90;;;;;;5045175;28;19920;-37
2022/08/17 00:23:34;;;;;;;;;;;21.90;99.90;;;;;;5047799;28;20219;-39
2022/08/17 00:25:59;;;;;;;;;;;21.90;99.90;;;;;;5048723;28;20248;-38
2022/08/17 00:28:26;;;;;;;;;;;21.90;99.90;;;;;;5028075;28;20365;-37
2022/08/17 00:30:52;;;;;;;;;;;21.90;99.90;;;;;;5041602;28;19916;-38
2022/08/17 00:33:20;;;;;;;;;;;21.80;99.90;;;;;;5048194;28;20357;-38
2022/08/17 00:35:46;;;;;;;;;;;21.80;99.90;;;;;;5047616;28;19909;-34
2022/08/17 00:38:12;;;;;;;;;;;21.80;99.90;;;;;;5036082;28;20401;-38
2022/08/17 00:40:38;;;;;;;;;;;21.80;99.90;;;;;;5048672;28;19909;-36
2022/08/17 00:43:18;;;;;;;;;;;21.80;99.90;;;;;;5045944;28;19921;-37
2022/08/17 00:45:43;;;;;;;;;;;21.80;99.90;;;;;;5037497;28;19920;-41
2022/08/17 00:48:09;;;;;;;;;;;21.70;99.90;;;;;;5046472;28;20454;-38
2022/08/17 00:50:35;;;;;;;;;;;21.70;99.90;;;;;;5047961;28;19912;-38
2022/08/17 00:53:01;;;;;;;;;;;21.70;99.90;;;;;;5046897;28;19959;-40
2022/08/17 00:55:26;;;;;;;;;;;21.70;99.90;;;;;;5048484;28;20003;-37
2022/08/17 00:57:54;;;;;;;;;;;21.70;99.90;;;;;;5047474;28;19909;-35
2022/08/17 01:00:25;;;;;;;;;;;21.60;99.90;;;;;;5047523;28;19920;-40
2022/08/17 01:02:53;;;;;;;;;;;21.60;99.90;;;;;;5046601;28;20388;-38
2022/08/17 01:05:22;;;;;;;;;;;21.60;99.90;;;;;;5048146;28;20368;-39
2022/08/17 01:07:49;;;;;;;;;;;21.50;99.90;;;;;;5047949;28;20004;-34
2022/08/17 01:10:16;;;;;;;;;;;21.40;99.90;;;;;;5043048;28;19920;-35
2022/08/17 01:12:42;;;;;;;;;;;21.40;99.90;;;;;;5047811;28;20384;-39
2022/08/17 01:15:07;;;;;;;;;;;21.40;99.90;;;;;;5034979;28;19915;-39
2022/08/17 01:17:33;;;;;;;;;;;21.40;99.90;;;;;;5046250;28;19919;-34
2022/08/17 01:19:58;;;;;;;;;;;21.40;99.90;;;;;;5043472;28;19913;-36
2022/08/17 01:22:24;;;;;;;;;;;21.40;99.90;;;;;;5045925;28;19959;-37
2022/08/17 01:24:54;;;;;;;;;;;21.40;99.90;;;;;;5047900;28;19921;-36
2022/08/17 01:27:20;;;;;;;;;;;21.40;99.90;;;;;;5051875;28;19920;-36
2022/08/17 01:29:48;;;;;;;;;;;21.40;99.90;;;;;;5049995;28;20043;-44
2022/08/17 01:32:14;;;;;;;;;;;21.30;99.90;;;;;;5049893;28;20396;-36
2022/08/17 01:34:40;;;;;;;;;;;21.30;99.90;;;;;;5050023;28;19913;-40
2022/08/17 01:37:06;;;;;;;;;;;21.40;99.90;;;;;;5047385;28;19962;-42
2022/08/17 01:39:35;;;;;;;;;;;21.40;99.90;;;;;;5047004;28;20201;-33
2022/08/17 01:42:05;;;;;;;;;;;21.40;99.90;;;;;;5042304;28;19917;-34
2022/08/17 01:44:31;;;;;;;;;;;21.50;99.90;;;;;;5046245;28;20355;-40
2022/08/17 01:46:57;;;;;;;;;;;21.70;99.90;;;;;;5050599;28;19995;-34
2022/08/17 01:49:22;;;;;;;;;;;21.60;99.90;;;;;;5051359;28;19916;-36
2022/08/17 01:51:48;;;;;;;;;;;21.40;99.90;;;;;;5043589;28;19912;-37
2022/08/17 01:54:14;;;;;;;;;;;21.20;99.90;;;;;;5045087;28;19912;-40
2022/08/17 01:56:42;;;;;;;;;;;21.20;99.90;;;;;;5051372;28;20288;-40
2022/08/17 01:59:07;;;;;;;;;;;21.10;99.90;;;;;;5051384;28;19913;-37
2022/08/17 02:01:33;;;;;;;;;;;21.00;99.90;;;;;;5050878;28;20383;-41
2022/08/17 02:03:59;;;;;;;;;;;21.00;99.90;;;;;;5051172;28;19913;-38
2022/08/17 02:06:26;;;;;;;;;;;21.00;99.90;;;;;;5045187;28;20035;-41
2022/08/17 02:08:51;;;;;;;;;;;21.00;99.90;;;;;;5050396;28;20243;-39
2022/08/17 02:11:18;;;;;;;;;;;21.00;99.90;;;;;;5050119;28;19917;-36
2022/08/17 02:13:45;;;;;;;;;;;20.90;99.90;;;;;;5049777;28;20380;-41
2022/08/17 02:16:11;;;;;;;;;;;20.90;99.90;;;;;;5041538;28;19913;-37
2022/08/17 02:18:36;;;;;;;;;;;20.90;99.90;;;;;;5049513;28;20455;-37
2022/08/17 02:21:02;;;;;;;;;;;20.80;99.90;;;;;;5045597;28;19920;-39
2022/08/17 02:23:31;;;;;;;;;;;20.80;99.90;;;;;;5050483;28;19912;-37
2022/08/17 02:25:57;;;;;;;;;;;20.70;99.90;;;;;;5050192;28;20055;-37
2022/08/17 02:28:22;;;;;;;;;;;20.50;99.90;;;;;;5049239;28;20414;-38
2022/08/17 02:30:48;;;;;;;;;;;20.30;99.90;;;;;;5049946;28;19912;-38
2022/08/17 02:33:14;;;;;;;;;;;20.10;99.90;;;;;;5049807;28;19967;-38
2022/08/17 02:35:39;;;;;;;;;;;20.10;99.90;;;;;;5049090;28;19913;-38
2022/08/17 02:38:05;;;;;;;;;;;20.10;99.90;;;;;;5040771;28;19913;-40
2022/08/17 02:40:31;;;;;;;;;;;20.10;99.90;;;;;;5043496;28;19921;-38
2022/08/17 02:42:57;;;;;;;;;;;20.00;99.90;;;;;;5049224;28;20497;-36
2022/08/17 02:45:23;;;;;;;;;;;20.00;99.90;;;;;;5049836;28;19972;-34
2022/08/17 02:47:49;;;;;;;;;;;19.90;99.90;;;;;;5048237;28;19983;-40
2022/08/17 02:50:15;;;;;;;;;;;19.80;99.90;;;;;;5050173;28;19913;-40
2022/08/17 02:52:42;;;;;;;;;;;19.80;99.90;;;;;;5050026;28;20438;-38
2022/08/17 02:55:10;;;;;;;;;;;19.80;99.90;;;;;;5049170;28;19916;-38
2022/08/17 02:57:35;;;;;;;;;;;19.80;99.90;;;;;;5042959;28;20284;-36
2022/08/17 03:00:03;;;;;;;;;;;19.80;99.90;;;;;;5049282;28;19913;-38
2022/08/17 03:02:28;;;;;;;;;;;19.80;99.90;;;;;;5048268;28;20324;-32
2022/08/17 03:04:54;;;;;;;;;;;19.70;99.90;;;;;;5049222;28;19924;-37
2022/08/17 03:07:20;;;;;;;;;;;19.80;99.90;;;;;;5049035;28;19913;-32
2022/08/17 03:09:45;;;;;;;;;;;19.80;99.90;;;;;;5048593;28;19916;-34
2022/08/17 03:12:12;;;;;;;;;;;19.70;99.90;;;;;;5043649;28;20380;-34
2022/08/17 03:14:38;;;;;;;;;;;19.80;99.90;;;;;;5040860;28;19921;-32
2022/08/17 03:17:04;;;;;;;;;;;19.90;99.90;;;;;;5044020;28;19935;-41
2022/08/17 03:19:29;;;;;;;;;;;20.00;99.90;;;;;;5047740;28;19913;-32
2022/08/17 03:21:56;;;;;;;;;;;20.00;99.90;;;;;;5045107;28;19920;-35
2022/08/17 03:24:22;;;;;;;;;;;19.90;99.90;;;;;;5045561;28;19921;-38
2022/08/17 03:26:47;;;;;;;;;;;19.80;99.90;;;;;;5049047;28;19947;-38
2022/08/17 03:29:17;;;;;;;;;;;19.80;99.90;;;;;;5045702;28;20004;-39
2022/08/17 03:31:46;;;;;;;;;;;19.80;99.90;;;;;;5048795;28;19916;-36
2022/08/17 03:34:12;;;;;;;;;;;19.80;99.90;;;;;;5044147;28;20074;-41
2022/08/17 03:36:38;;;;;;;;;;;19.80;99.90;;;;;;5049014;28;19990;-37
2022/08/17 03:39:03;;;;;;;;;;;19.80;99.90;;;;;;5049095;28;19941;-38
2022/08/17 03:41:29;;;;;;;;;;;19.80;99.90;;;;;;5048934;28;19917;-38
2022/08/17 03:43:55;;;;;;;;;;;19.80;99.90;;;;;;5044646;28;19940;-53
2022/08/17 03:57:36;;;;;;;;;;;19.70;99.90;;;;;;5042937;28;19955;-36
2022/08/17 04:00:03;;;;;;;;;;;19.70;99.90;;;;;;5044046;28;19913;-38
2022/08/17 04:02:30;;;;;;;;;;;19.70;99.90;;;;;;5042555;28;20419;-38
2022/08/17 04:04:56;;;;;;;;;;;19.70;99.90;;;;;;5049001;28;19928;-38
2022/08/17 04:07:23;;;;;;;;;;;19.70;99.90;;;;;;5048333;28;20143;-38
2022/08/17 04:09:49;;;;;;;;;;;19.70;99.90;;;;;;5044327;28;19948;-36
2022/08/17 04:12:16;;;;;;;;;;;19.70;99.90;;;;;;5047916;28;19948;-38
2022/08/17 04:14:42;;;;;;;;;;;19.70;99.90;;;;;;5047871;28;20316;-37
2022/08/17 04:17:08;;;;;;;;;;;19.80;99.90;;;;;;5044440;28;19914;-38
2022/08/17 04:19:33;;;;;;;;;;;19.70;99.90;;;;;;5048072;28;19917;-40
2022/08/17 04:21:59;;;;;;;;;;;19.70;99.90;;;;;;5046223;28;19920;-36
2022/08/17 04:24:25;;;;;;;;;;;19.70;99.90;;;;;;5047077;28;19920;-35
2022/08/17 04:26:50;;;;;;;;;;;19.70;99.90;;;;;;5047131;28;19917;-38
2022/08/17 04:29:16;;;;;;;;;;;19.70;99.90;;;;;;5045553;28;19924;-38
2022/08/17 04:31:42;;;;;;;;;;;19.70;99.90;;;;;;5046885;28;19943;-33
2022/08/17 04:34:08;;;;;;;;;;;19.70;99.90;;;;;;5033347;28;19913;-34
2022/08/17 04:36:34;;;;;;;;;;;19.70;99.90;;;;;;5045460;28;19924;-32
2022/08/17 04:38:59;;;;;;;;;;;19.70;99.90;;;;;;5045216;28;19913;-34
2022/08/17 04:44:10;;;;;;;;;;;19.80;99.90;;;;;;5041751;28;19952;-31
2022/08/17 04:46:36;;;;;;;;;;;19.80;99.90;;;;;;5047178;28;20299;-33
2022/08/17 04:49:06;;;;;;;;;;;19.90;99.90;;;;;;5047066;28;19983;-30
2022/08/17 04:51:33;;;;;;;;;;;19.90;99.90;;;;;;5046733;28;19913;-32
2022/08/17 04:54:01;;;;;;;;;;;19.90;99.90;;;;;;5044126;28;20381;-37
2022/08/17 04:56:27;;;;;;;;;;;20.00;99.90;;;;;;5046856;28;19951;-36
2022/08/17 04:58:54;;;;;;;;;;;19.90;99.90;;;;;;5051036;28;20343;-30
2022/08/17 05:01:21;;;;;;;;;;;19.90;99.90;;;;;;5046281;28;19916;-33
2022/08/17 05:03:46;;;;;;;;;;;19.80;99.90;;;;;;5050314;28;20346;-33
2022/08/17 05:06:12;;;;;;;;;;;19.80;99.90;;;;;;5047288;28;20395;-38
2022/08/17 05:08:38;;;;;;;;;;;19.80;99.90;;;;;;5048385;28;20424;-38
2022/08/17 05:11:04;;;;;;;;;;;19.80;99.90;;;;;;5044577;28;19920;-35
2022/08/17 05:13:29;;;;;;;;;;;19.80;99.90;;;;;;5049973;28;20007;-32
2022/08/17 05:15:56;;;;;;;;;;;19.80;99.90;;;;;;5048567;28;20020;-33
2022/08/17 05:18:22;;;;;;;;;;;19.80;99.90;;;;;;5048897;28;20459;-30
2022/08/17 05:20:47;;;;;;;;;;;19.70;99.90;;;;;;5043231;28;19925;-36
2022/08/17 05:23:14;;;;;;;;;;;19.60;99.90;;;;;;5050460;28;19916;-33
2022/08/17 05:25:42;;;;;;;;;;;19.60;99.90;;;;;;5048989;28;20385;-36
2022/08/17 05:28:08;;;;;;;;;;;19.60;99.90;;;;;;5036125;28;19959;-37
2022/08/17 05:30:34;;;;;;;;;;;19.60;99.90;;;;;;5047860;28;19917;-35
2022/08/17 05:33:19;;;;;;;;;;;19.50;99.90;;;;;;5050730;28;19921;-31
2022/08/17 05:35:45;;;;;;;;;;;19.50;99.90;;;;;;5047003;28;19992;-38
2022/08/17 05:38:12;;;;;;;;;;;19.50;99.90;;;;;;5041887;28;19913;-33
2022/08/17 05:40:38;;;;;;;;;;;19.60;99.90;;;;;;5049618;28;19951;-34
2022/08/17 05:43:04;;;;;;;;;;;19.50;99.90;;;;;;5051181;28;19948;-37
2022/08/17 05:45:30;;;;;;;;;;;19.60;99.90;;;;;;5050319;28;20325;-32
2022/08/17 05:47:55;;;;;;;;;;;19.60;99.90;;;;;;5051244;28;19983;-37
2022/08/17 05:50:24;;;;;;;;;;;19.70;99.90;;;;;;5050117;28;19909;-38
2022/08/17 05:52:55;;;;;;;;;;;19.70;99.90;;;;;;5050792;28;19999;-37
2022/08/17 05:55:34;;;;;;;;;;;19.70;99.90;;;;;;5051441;28;19935;-36
2022/08/17 05:58:12;;;;;;;;;;;19.80;99.90;;;;;;5051041;28;20300;-37
2022/08/17 06:00:46;;;;;;;;;;;19.90;99.90;;;;;;5045744;28;20327;-37
2022/08/17 06:03:18;;;;;;;;;;;19.90;99.90;;;;;;5051122;28;19909;-36
2022/08/17 06:05:44;;;;;;;;;;;19.90;99.90;;;;;;5051625;28;19913;-36
2022/08/17 06:08:09;;;;;;;;;;;20.00;99.90;;;;;;5040902;28;19909;-36
2022/08/17 06:10:42;;;;;;;;;;;20.00;99.90;;;;;;5043156;28;19948;-36
2022/08/17 06:13:34;;;;;;;;;;;20.00;99.90;;;;;;5042177;28;19952;-34
2022/08/17 06:16:10;;;;;;;;;;;20.10;99.90;;;;;;5038636;28;19948;-38
2022/08/17 06:18:44;;;;;;;;;;;20.10;99.90;;;;;;5043037;28;20352;-38
2022/08/17 06:21:12;;;;;;;;;;;20.10;99.90;;;;;;5040675;28;19912;-37
2022/08/17 06:23:41;;;;;;;;;;;20.10;99.90;;;;;;5042623;28;19917;-39
2022/08/17 06:26:26;;;;;;;;;;;20.20;99.90;;;;;;5042605;28;19956;-36
2022/08/17 06:28:54;;;;;;;;;;;20.30;99.90;;;;;;5045292;28;20083;-41
2022/08/17 06:31:21;;;;;;;;;;;20.50;99.90;;;;;;5048685;28;19920;-48
2022/08/17 06:33:47;;;;;;;;;;;20.60;99.90;;;;;;5047974;28;20394;-37
2022/08/17 06:36:13;;;;;;;;;;;20.80;99.90;;;;;;5038315;28;20388;-37
2022/08/17 06:38:47;;;;;;;;;;;20.80;99.90;;;;;;5044875;28;19955;-32
2022/08/17 06:41:27;;;;;;;;;;;20.90;99.90;;;;;;5041193;28;19924;-34
2022/08/17 06:43:53;;;;;;;;;;;20.90;99.90;;;;;;5045136;28;19913;-41
2022/08/17 06:46:24;;;;;;;;;;;20.90;99.90;;;;;;5047355;28;19966;-35
2022/08/17 06:48:53;;;;;;;;;;;20.90;99.90;;;;;;5042099;28;20276;-33
2022/08/17 06:51:18;;;;;;;;;;;20.90;99.90;;;;;;5048300;28;19916;-32
2022/08/17 06:54:04;;;;;;;;;;;20.90;99.90;;;;;;5031507;28;19913;-32
2022/08/17 06:56:48;;;;;;;;;;;20.90;99.90;;;;;;5037674;28;20373;-35
2022/08/17 06:59:17;;;;;;;;;;;20.90;99.90;;;;;;5047964;28;20017;-32
2022/08/17 07:01:44;;;;;;;;;;;21.00;99.90;;;;;;5041241;28;19952;-31
2022/08/17 07:04:13;;;;;;;;;;;20.90;99.90;;;;;;5039345;28;19913;-38
2022/08/17 07:06:46;;;;;;;;;;;20.90;99.90;;;;;;5040011;28;20401;-34
2022/08/17 07:09:14;;;;;;;;;;;20.90;99.90;;;;;;5042033;28;19919;-30
2022/08/17 07:11:47;;;;;;;;;;;20.90;99.90;;;;;;5040346;28;19913;-37
2022/08/17 07:14:18;;;;;;;;;;;20.90;99.90;;;;;;5038627;28;20376;-35
2022/08/17 07:16:45;;;;;;;;;;;21.00;99.90;;;;;;5034214;28;19917;-39
2022/08/17 07:19:12;;;;;;;;;;;21.00;99.90;;;;;;5036552;28;19913;-36
2022/08/17 07:21:46;;;;;;;;;;;21.00;99.90;;;;;;5042423;28;19943;-30
2022/08/17 07:24:19;;;;;;;;;;;21.00;99.90;;;;;;5036645;28;21317;-35
2022/08/17 07:26:48;;;;;;;;;;;21.10;99.90;;;;;;5041790;28;20046;-40
2022/08/17 07:29:15;;;;;;;;;;;21.20;99.90;;;;;;5042923;28;19939;-31
2022/08/17 07:31:41;;;;;;;;;;;21.20;99.90;;;;;;5046628;28;20010;-52
2022/08/17 07:34:09;;;;;;;;;;;21.30;99.90;;;;;;5039971;28;19964;-33
2022/08/17 07:36:35;;;;;;;;;;;21.30;99.90;;;;;;5036584;28;20380;-34
2022/08/17 07:39:01;;;;;;;;;;;21.40;99.90;;;;;;5048038;28;19917;-39
2022/08/17 07:41:30;;;;;;;;;;;21.40;99.90;;;;;;5047207;28;20419;-48
2022/08/17 07:43:55;;;;;;;;;;;21.40;99.90;;;;;;5043712;28;20150;-37
2022/08/17 07:49:20;;;;;;;;;;;21.40;99.90;;;;;;5037329;28;19963;-36
2022/08/17 07:51:46;;;;;;;;;;;21.40;99.90;;;;;;5040479;28;20479;-35
2022/08/17 07:54:14;;;;;;;;;;;21.50;99.90;;;;;;5039585;28;19913;-37
2022/08/17 07:56:42;;;;;;;;;;;21.50;99.90;;;;;;5038722;28;20371;-40
2022/08/17 07:59:08;;;;;;;;;;;21.50;99.90;;;;;;5047032;28;19913;-38
2022/08/17 08:01:36;;;;;;;;;;;21.50;99.90;;;;;;5048704;28;19966;-37
2022/08/17 08:04:14;;;;;;;;;;;21.60;99.90;;;;;;5047675;28;20289;-40
2022/08/17 08:06:45;;;;;;;;;;;21.60;99.90;;;;;;5044951;28;20357;-37
2022/08/17 08:09:26;;;;;;;;;;;21.70;99.90;;;;;;5046675;28;19913;-37
2022/08/17 08:11:51;;;;;;;;;;;21.70;99.90;;;;;;5046559;28;20361;-37
2022/08/17 08:14:28;;;;;;;;;;;21.70;99.90;;;;;;5043964;28;19923;-37
2022/08/17 08:16:55;;;;;;;;;;;21.70;99.90;;;;;;5042946;28;19928;-37
2022/08/17 08:19:22;;;;;;;;;;;21.70;99.90;;;;;;5043290;28;19909;-39
2022/08/17 08:21:57;;;;;;;;;;;21.70;99.90;;;;;;5036202;28;19913;-40
2022/08/17 08:24:41;;;;;;;;;;;21.70;99.90;;;;;;5047814;28;20289;-38
2022/08/17 08:27:14;;;;;;;;;;;21.70;99.90;;;;;;5046555;28;19970;-38
2022/08/17 08:29:58;;;;;;;;;;;21.80;99.90;;;;;;5045474;28;20387;-43
2022/08/17 08:32:24;;;;;;;;;;;21.80;99.90;;;;;;5044875;28;19919;-39
2022/08/17 08:35:05;;;;;;;;;;;21.80;99.90;;;;;;5035952;28;20357;-38
2022/08/17 08:37:55;;;;;;;;;;;21.70;99.90;;;;;;5046876;28;20007;-37
2022/08/17 08:40:20;;;;;;;;;;;21.70;99.90;;;;;;5042337;28;20337;-38
2022/08/17 08:42:55;;;;;;;;;;;21.70;99.90;;;;;;5047551;28;19954;-36
2022/08/17 08:45:26;;;;;;;;;;;21.70;99.90;;;;;;5047546;28;20361;-35
2022/08/17 08:48:15;;;;;;;;;;;21.80;99.90;;;;;;5045283;28;19913;-37
2022/08/17 08:50:41;;;;;;;;;;;21.80;99.90;;;;;;5041588;28;19913;-35
2022/08/17 08:53:10;;;;;;;;;;;21.80;99.90;;;;;;5045316;28;20434;-36
2022/08/17 08:55:51;;;;;;;;;;;21.90;99.90;;;;;;5041217;28;20109;-37
2022/08/17 08:58:19;;;;;;;;;;;21.90;99.90;;;;;;5047308;28;19959;-38
2022/08/17 09:00:49;;;;;;;;;;;22.00;99.90;;;;;;5041525;28;20463;-36
2022/08/17 09:03:15;;;;;;;;;;;22.00;99.90;;;;;;5040284;28;19943;-34
2022/08/17 09:05:56;;;;;;;;;;;21.90;99.90;;;;;;5040201;28;19917;-38
2022/08/17 09:08:26;;;;;;;;;;;22.00;99.90;;;;;;5048060;28;19920;-38
2022/08/17 09:10:55;;;;;;;;;;;22.00;99.90;;;;;;5041334;28;20003;-37
2022/08/17 09:13:26;;;;;;;;;;;22.00;99.90;;;;;;5048324;28;19975;-35
2022/08/17 09:16:05;;;;;;;;;;;22.00;99.90;;;;;;5042757;28;19913;-34
2022/08/17 09:18:32;;;;;;;;;;;22.10;99.90;;;;;;5046590;28;19970;-37
2022/08/17 09:21:04;;;;;;;;;;;22.00;99.90;;;;;;5041612;28;20360;-36
2022/08/17 09:23:38;;;;;;;;;;;22.00;99.90;;;;;;5048392;28;20377;-40
2022/08/17 09:26:12;;;;;;;;;;;22.00;99.90;;;;;;5046166;28;20036;-41
2022/08/17 09:28:39;;;;;;;;;;;22.00;99.90;;;;;;5044494;28;20340;-38
2022/08/17 09:31:09;;;;;;;;;;;21.90;99.90;;;;;;5048472;28;20359;-34
2022/08/17 09:33:38;;;;;;;;;;;21.90;99.90;;;;;;5039366;28;19923;-33
2022/08/17 09:36:10;;;;;;;;;;;21.70;99.90;;;;;;5037821;28;20460;-40
2022/08/17 09:41:42;;;;;;;;;;;21.20;99.90;;;;;;5045039;28;20003;-38
2022/08/17 09:44:26;;;;;;;;;;;20.80;99.90;;;;;;5048979;28;19913;-38
2022/08/17 09:46:54;;;;;;;;;;;20.50;99.90;;;;;;5039487;28;19909;-38
2022/08/17 09:49:27;;;;;;;;;;;20.30;99.90;;;;;;5049492;28;19908;-37
2022/08/17 09:52:04;;;;;;;;;;;20.10;99.90;;;;;;5051087;28;19942;-35
2022/08/17 09:54:31;;;;;;;;;;;19.80;99.90;;;;;;5050865;28;19909;-37
2022/08/17 09:57:17;;;;;;;;;;;19.70;99.90;;;;;;5041118;28;20324;-36
2022/08/17 09:59:52;;;;;;;;;;;19.70;99.90;;;;;;5046378;28;20415;-35
2022/08/17 10:02:26;;;;;;;;;;;19.90;99.90;;;;;;5043261;28;20381;-37
2022/08/17 10:05:01;;;;;;;;;;;20.10;99.90;;;;;;5047429;28;19932;-36
2022/08/17 10:07:35;;;;;;;;;;;20.20;99.90;;;;;;5041251;28;19917;-36
2022/08/17 10:10:20;;;;;;;;;;;20.20;99.90;;;;;;5047461;28;19913;-37
2022/08/17 10:12:51;;;;;;;;;;;20.20;99.90;;;;;;5049555;28;19913;-36
2022/08/17 10:15:26;;;;;;;;;;;20.10;99.90;;;;;;5047844;28;20153;-35
2022/08/17 10:17:55;;;;;;;;;;;20.00;99.90;;;;;;5047400;28;20296;-36
2022/08/17 10:20:26;;;;;;;;;;;19.90;99.90;;;;;;5043518;28;19908;-35
2022/08/17 10:28:28;;;;;;;;;;;19.70;99.90;;;;;;5044526;28;19958;-35
2022/08/17 10:30:55;;;;;;;;;;;19.60;99.90;;;;;;5049698;28;20004;-37
2022/08/17 10:33:23;;;;;;;;;;;19.60;99.90;;;;;;5049858;28;19913;-36
2022/08/17 10:35:57;;;;;;;;;;;19.70;99.90;;;;;;5046071;28;19916;-36
2022/08/17 10:38:41;;;;;;;;;;;19.90;99.90;;;;;;5048185;28;20249;-35
2022/08/17 10:41:25;;;;;;;;;;;20.00;99.90;;;;;;5049868;28;19913;-36
2022/08/17 10:44:00;;;;;;;;;;;20.10;99.90;;;;;;5042931;28;20286;-37
2022/08/17 10:46:45;;;;;;;;;;;20.20;99.90;;;;;;5048908;28;20400;-37
2022/08/17 10:49:20;;;;;;;;;;;20.30;99.90;;;;;;5039504;28;20403;-37
2022/08/17 10:51:52;;;;;;;;;;;20.40;99.90;;;;;;5040632;28;19923;-37
2022/08/17 10:54:23;;;;;;;;;;;20.40;99.90;;;;;;5039162;28;19917;-36
2022/08/17 10:56:50;;;;;;;;;;;20.40;99.90;;;;;;5040674;28;20007;-37
2022/08/17 10:59:34;;;;;;;;;;;20.40;99.90;;;;;;5044005;28;20357;-40
2022/08/17 11:01:59;;;;;;;;;;;20.50;99.90;;;;;;5047336;28;20365;-36
2022/08/17 11:04:31;;;;;;;;;;;20.70;99.90;;;;;;5045680;28;19924;-34
2022/08/17 11:07:00;;;;;;;;;;;20.80;99.90;;;;;;5043918;28;19920;-42
2022/08/17 11:09:42;;;;;;;;;;;20.90;99.90;;;;;;5040226;28;20573;-38
2022/08/17 11:12:32;;;;;;;;;;;21.00;99.90;;;;;;5048669;28;20404;-38
2022/08/17 11:15:19;;;;;;;;;;;20.90;99.90;;;;;;5048952;28;19913;-37
2022/08/17 11:18:03;;;;;;;;;;;21.00;99.90;;;;;;5049081;28;19916;-37
2022/08/17 11:20:47;;;;;;;;;;;21.00;99.90;;;;;;5044042;28;19913;-36
2022/08/17 11:23:31;;;;;;;;;;;21.00;99.90;;;;;;5048630;28;19916;-36
2022/08/17 11:25:59;;;;;;;;;;;21.00;99.90;;;;;;5048697;28;20012;-36
2022/08/17 11:28:34;;;;;;;;;;;21.00;99.90;;;;;;5049921;28;19932;-38
2022/08/17 11:31:07;;;;;;;;;;;21.00;99.90;;;;;;5048938;28;19990;-36
2022/08/17 11:33:33;;;;;;;;;;;21.00;99.90;;;;;;5035869;28;19955;-36
2022/08/17 11:36:15;;;;;;;;;;;21.10;99.90;;;;;;5049119;28;19975;-36
2022/08/17 11:38:49;;;;;;;;;;;21.00;99.90;;;;;;5048684;28;20360;-34
2022/08/17 11:41:33;;;;;;;;;;;21.00;99.90;;;;;;5037144;28;20372;-36
2022/08/17 11:44:06;;;;;;;;;;;21.00;99.90;;;;;;5049084;28;19908;-37
2022/08/17 11:52:39;;;;;;;;;;;20.90;99.90;;;;;;5048472;28;20074;-38
2022/08/17 11:55:07;;;;;;;;;;;20.70;99.90;;;;;;5048099;28;20387;-35
2022/08/17 11:57:39;;;;;;;;;;;20.70;99.90;;;;;;5048353;28;19948;-30
2022/08/17 12:00:12;;;;;;;;;;;20.60;99.90;;;;;;5047192;28;19913;-34
2022/08/17 12:02:43;;;;;;;;;;;20.60;99.90;;;;;;5038707;28;19916;-30
2022/08/17 12:05:26;;;;;;;;;;;20.60;99.90;;;;;;5048033;28;19999;-31
2022/08/17 12:08:06;;;;;;;;;;;20.60;99.90;;;;;;5047995;28;20360;-33
2022/08/17 12:10:34;;;;;;;;;;;20.60;99.90;;;;;;5038225;28;19921;-30
2022/08/17 12:13:05;;;;;;;;;;;20.60;99.90;;;;;;5036320;28;20451;-35
2022/08/17 12:15:34;;;;;;;;;;;20.60;99.90;;;;;;5046164;28;19917;-39
2022/08/17 12:18:00;;;;;;;;;;;20.60;99.90;;;;;;5041751;28;19934;-37
2022/08/17 12:20:28;;;;;;;;;;;20.50;99.90;;;;;;5039566;28;20369;-37
2022/08/17 12:23:11;;;;;;;;;;;20.50;99.90;;;;;;5041126;28;19913;-32
2022/08/17 12:25:46;;;;;;;;;;;20.50;99.90;;;;;;5041130;28;20400;-34
2022/08/17 12:28:21;;;;;;;;;;;20.40;99.90;;;;;;5042015;28;22012;-32
2022/08/17 12:30:47;;;;;;;;;;;20.40;99.90;;;;;;5046933;28;19916;-30
2022/08/17 12:33:13;;;;;;;;;;;20.40;99.90;;;;;;5040054;28;20269;-30
2022/08/17 12:35:39;;;;;;;;;;;20.30;99.90;;;;;;5046436;28;19919;-33
2022/08/17 12:38:07;;;;;;;;;;;20.20;99.90;;;;;;5040418;28;20004;-33
2022/08/17 12:45:45;;;;;;;;;;;20.10;99.90;;;;;;5020386;26;19964;-35
2022/08/17 12:48:12;;;;;;;;;;;20.10;99.90;;;;;;5042283;28;20371;-38
2022/08/17 12:50:39;;;;;;;;;;;20.10;99.90;;;;;;5046537;28;19966;-36
2022/08/17 12:53:12;;;;;;;;;;;20.20;99.90;;;;;;5045960;28;20355;-35
2022/08/17 12:55:40;;;;;;;;;;;20.30;99.90;;;;;;5031636;28;19906;-35
2022/08/17 12:58:11;;;;;;;;;;;20.20;99.90;;;;;;5044407;28;20269;-36
2022/08/17 13:00:39;;;;;;;;;;;20.30;99.90;;;;;;5046381;28;20397;-38
2022/08/17 13:03:08;;;;;;;;;;;20.30;99.90;;;;;;5035007;28;19920;-36
2022/08/17 13:05:36;;;;;;;;;;;20.30;99.90;;;;;;5044981;28;19928;-34
2022/08/17 13:08:22;;;;;;;;;;;20.30;99.90;;;;;;5045518;28;20402;-36
2022/08/17 13:10:58;;;;;;;;;;;20.30;99.90;;;;;;5034548;28;20015;-37
2022/08/17 13:13:26;;;;;;;;;;;20.40;99.90;;;;;;5043620;28;19956;-37
2022/08/17 13:15:59;;;;;;;;;;;20.40;99.90;;;;;;5047210;28;20296;-33
2022/08/17 13:18:43;;;;;;;;;;;20.50;99.90;;;;;;5043990;28;20347;-40
2022/08/17 13:21:18;;;;;;;;;;;20.50;99.90;;;;;;5039325;28;20344;-36
2022/08/17 13:23:52;;;;;;;;;;;20.50;99.90;;;;;;5045072;28;19920;-36
2022/08/17 13:26:26;;;;;;;;;;;20.60;99.90;;;;;;5037988;28;19925;-33
2022/08/17 13:28:53;;;;;;;;;;;20.50;99.90;;;;;;5045253;28;19916;-35
2022/08/17 13:31:19;;;;;;;;;;;20.50;99.90;;;;;;5039695;28;19908;-37
2022/08/17 13:36:49;;;;;;;;;;;20.60;99.90;;;;;;5047022;28;19962;-33
2022/08/17 13:39:20;;;;;;;;;;;20.60;99.90;;;;;;5048400;28;20364;-30
2022/08/17 13:41:46;;;;;;;;;;;20.50;99.90;;;;;;5044313;28;19917;-31
2022/08/17 13:44:30;;;;;;;;;;;20.50;99.90;;;;;;5055472;28;20372;-32
2022/08/17 13:46:56;;;;;;;;;;;20.50;99.90;;;;;;5060541;28;19935;-30
2022/08/17 13:49:22;;;;;;;;;;;20.50;99.90;;;;;;5060243;28;20007;-42
2022/08/17 13:51:50;;;;;;;;;;;20.40;99.90;;;;;;5074507;28;19960;-30
2022/08/17 13:54:22;;;;;;;;;;;20.40;99.90;;;;;;5072529;28;19909;-29
2022/08/17 13:56:52;;;;;;;;;;;20.40;99.90;;;;;;5074327;28;20352;-34
2022/08/17 13:59:37;;;;;;;;;;;20.40;99.90;;;;;;5060987;28;19998;-31
2022/08/17 14:02:04;;;;;;;;;;;20.50;99.90;;;;;;5072375;28;20692;-29
2022/08/17 14:04:30;;;;;;;;;;;20.50;99.90;;;;;;5072857;28;19920;-30
2022/08/17 14:07:21;;;;;;;;;;;20.50;99.90;;;;;;5068773;28;19912;-37
2022/08/17 14:10:02;;;;;;;;;;;20.40;99.90;;;;;;5069542;28;20487;-30
2022/08/17 14:12:29;;;;;;;;;;;20.40;99.90;;;;;;5069786;28;19912;-34
2022/08/17 14:14:55;;;;;;;;;;;20.40;99.90;;;;;;5068379;28;19931;-31
2022/08/17 14:17:22;;;;;;;;;;;20.50;99.90;;;;;;5071024;28;19913;-31
2022/08/17 14:19:48;;;;;;;;;;;20.50;99.90;;;;;;5069882;28;19912;-32
2022/08/17 14:22:17;;;;;;;;;;;20.50;99.90;;;;;;5055015;28;19909;-35
2022/08/17 14:24:42;;;;;;;;;;;20.50;99.90;;;;;;5056179;28;19913;-32
2022/08/17 14:27:08;;;;;;;;;;;20.60;99.90;;;;;;5054702;28;20410;-32
2022/08/17 14:29:34;;;;;;;;;;;20.60;99.90;;;;;;5055445;28;19916;-36
2022/08/17 14:32:01;;;;;;;;;;;20.60;99.90;;;;;;5054866;28;20042;-36
2022/08/17 14:34:27;;;;;;;;;;;20.60;99.90;;;;;;5055991;28;19931;-35
2022/08/17 14:36:52;;;;;;;;;;;20.60;99.90;;;;;;5062517;28;19908;-29
2022/08/17 14:39:19;;;;;;;;;;;20.50;99.90;;;;;;5058032;28;19983;-32
2022/08/17 14:41:44;;;;;;;;;;;20.50;99.90;;;;;;5053600;28;19909;-30
2022/08/17 14:44:11;;;;;;;;;;;20.40;99.90;;;;;;5053445;28;19917;-32
2022/08/17 14:46:41;;;;;;;;;;;20.40;99.90;;;;;;5053330;28;19921;-34
2022/08/17 14:49:08;;;;;;;;;;;20.40;99.90;;;;;;5054099;28;19984;-35
2022/08/17 14:51:33;;;;;;;;;;;20.40;99.90;;;;;;5072856;28;20389;-29
2022/08/17 14:53:59;;;;;;;;;;;20.40;99.90;;;;;;5072324;28;19908;-39
2022/08/17 14:56:24;;;;;;;;;;;20.40;99.90;;;;;;5073187;28;19909;-31
2022/08/17 14:58:50;;;;;;;;;;;20.40;99.90;;;;;;5056588;28;19954;-32
2022/08/17 15:01:17;;;;;;;;;;;20.40;99.90;;;;;;5053179;28;20375;-33
2022/08/17 15:03:42;;;;;;;;;;;20.50;99.90;;;;;;5056271;28;20364;-30
2022/08/17 15:06:10;;;;;;;;;;;20.50;99.90;;;;;;5072436;28;19957;-30
2022/08/17 15:08:36;;;;;;;;;;;20.60;99.90;;;;;;5072180;28;20431;-29
2022/08/17 15:11:02;;;;;;;;;;;20.60;99.90;;;;;;5071382;28;19983;-32